Time;durP1;ratioP1;P1;durP2;ratioP2;P2;SDS_P1;SDS_P2;PMS_P1;PMS_P2;Temp;Humidity;BMP_temperature;BMP_pressure;BME280_temperature;BME280_humidity;BME280_pressure;Samples;Min_cycle;Max_cycle;Signal;HPM_P1;HPM_P2
2023/10/06 00:01:33;;;;;;;17.13;5.22;;;;;;;12.89;100.00;102352.44;5058294;28;20040;-70
2023/10/06 00:04:06;;;;;;;18.40;5.85;;;;;;;12.86;100.00;102358.03;5050610;28;20025;-70
2023/10/06 00:06:32;;;;;;;15.93;5.47;;;;;;;12.85;100.00;102350.03;5058243;28;20025;-70
2023/10/06 00:08:58;;;;;;;19.70;6.05;;;;;;;12.87;100.00;102358.88;5063193;28;20033;-70
2023/10/06 00:11:29;;;;;;;18.15;6.05;;;;;;;12.83;100.00;102360.91;5053938;28;20372;-69
2023/10/06 00:14:01;;;;;;;15.40;5.18;;;;;;;12.80;100.00;102358.41;5038993;28;20021;-70
2023/10/06 00:16:33;;;;;;;18.05;5.93;;;;;;;12.76;100.00;102373.03;5058056;28;20277;-70
2023/10/06 00:19:06;;;;;;;18.08;5.72;;;;;;;12.81;100.00;102360.16;5054192;28;20025;-70
2023/10/06 00:21:32;;;;;;;18.98;5.95;;;;;;;12.81;100.00;102352.06;5058749;28;20033;-70
2023/10/06 00:23:59;;;;;;;18.77;5.88;;;;;;;12.80;100.00;102355.69;5051781;28;20119;-70
2023/10/06 00:26:26;;;;;;;19.13;5.93;;;;;;;12.80;100.00;102362.91;5060011;28;20025;-70
2023/10/06 00:28:51;;;;;;;16.08;5.72;;;;;;;12.79;100.00;102362.03;5050824;28;20044;-70
2023/10/06 00:31:17;;;;;;;16.33;6.35;;;;;;;12.74;100.00;102354.22;5050763;28;20055;-69
2023/10/06 00:33:44;;;;;;;18.13;6.55;;;;;;;12.75;100.00;102357.78;5040398;28;20112;-71
2023/10/06 00:36:17;;;;;;;17.35;5.65;;;;;;;12.76;100.00;102362.22;5047727;28;20078;-70
2023/10/06 00:38:49;;;;;;;22.30;5.47;;;;;;;12.74;100.00;102362.31;5045921;28;20035;-70
2023/10/06 00:41:14;;;;;;;15.63;5.50;;;;;;;12.70;100.00;102351.81;5061464;28;20499;-70
2023/10/06 00:43:43;;;;;;;18.23;6.95;;;;;;;12.68;100.00;102356.41;5059561;28;20024;-69
2023/10/06 00:46:10;;;;;;;16.60;5.10;;;;;;;12.67;100.00;102358.22;5055476;28;20044;-70
2023/10/06 00:48:44;;;;;;;18.52;5.35;;;;;;;12.68;100.00;102348.31;5036203;28;20045;-71
2023/10/06 00:51:19;;;;;;;16.17;5.93;;;;;;;12.71;100.00;102353.56;5062499;28;20029;-70
2023/10/06 00:53:51;;;;;;;16.63;6.05;;;;;;;12.68;100.00;102356.41;5052225;28;20719;-69
2023/10/06 00:56:23;;;;;;;17.55;5.95;;;;;;;12.64;100.00;102352.16;5035974;28;20116;-70
2023/10/06 00:58:49;;;;;;;18.65;5.75;;;;;;;12.65;100.00;102351.19;5052393;28;20107;-70
2023/10/06 01:01:17;;;;;;;18.85;5.55;;;;;;;12.64;100.00;102350.31;5058807;28;20057;-72
2023/10/06 01:03:44;;;;;;;17.75;5.90;;;;;;;12.61;100.00;102342.41;5061734;28;20037;-72
2023/10/06 01:06:13;;;;;;;19.13;6.15;;;;;;;12.63;100.00;102334.22;5053279;28;20109;-72
2023/10/06 01:08:53;;;;;;;19.92;5.70;;;;;;;12.64;100.00;102330.59;5053080;28;20037;-72
2023/10/06 01:11:20;;;;;;;18.92;6.20;;;;;;;12.59;100.00;102334.41;5062435;28;20131;-72
2023/10/06 01:13:55;;;;;;;19.08;5.60;;;;;;;12.64;100.00;102327.88;5059522;28;20157;-72
2023/10/06 01:16:34;;;;;;;18.35;6.20;;;;;;;12.59;100.00;102323.63;5050498;28;20299;-72
2023/10/06 01:21:55;;;;;;;19.10;6.18;;;;;;;12.60;100.00;102319.09;5046673;28;20428;-72
2023/10/06 01:24:24;;;;;;;18.42;5.43;;;;;;;12.59;100.00;102318.22;5052210;28;20025;-72
2023/10/06 01:26:53;;;;;;;17.13;5.82;;;;;;;12.63;100.00;102313.50;5041984;28;20044;-72
2023/10/06 01:29:22;;;;;;;15.77;5.68;;;;;;;12.63;100.00;102315.34;5045396;28;20031;-72
2023/10/06 01:31:49;;;;;;;17.33;5.65;;;;;;;12.61;100.00;102312.75;5056382;28;20032;-72
2023/10/06 01:34:15;;;;;;;16.33;5.05;;;;;;;12.57;100.00;102320.13;5049268;28;20093;-72
2023/10/06 01:36:42;;;;;;;16.70;5.85;;;;;;;12.59;100.00;102320.94;5052624;28;20388;-72
2023/10/06 01:39:16;;;;;;;23.45;6.22;;;;;;;12.61;100.00;102322.66;5036599;28;20032;-72
2023/10/06 01:41:42;;;;;;;18.48;6.22;;;;;;;12.61;100.00;102314.56;5044418;28;20032;-72
2023/10/06 01:44:12;;;;;;;17.35;5.40;;;;;;;12.56;100.00;102306.72;5034845;28;20083;-72
2023/10/06 01:46:38;;;;;;;24.40;5.97;;;;;;;12.58;100.00;102304.84;5062045;28;20051;-72
2023/10/06 01:49:04;;;;;;;18.75;6.20;;;;;;;12.56;100.00;102302.22;5052944;28;20029;-72
2023/10/06 01:51:35;;;;;;;17.25;5.03;;;;;;;12.55;100.00;102297.78;5053303;28;20025;-72
2023/10/06 01:54:02;;;;;;;18.42;5.13;;;;;;;12.58;100.00;102308.41;5050413;28;20044;-72
2023/10/06 01:56:31;;;;;;;17.25;6.35;;;;;;;12.54;100.00;102301.44;5056487;28;20033;-72
2023/10/06 01:58:57;;;;;;;20.90;6.07;;;;;;;12.54;100.00;102298.75;5049744;28;20017;-73
2023/10/06 02:01:22;;;;;;;19.73;6.00;;;;;;;12.52;100.00;102294.41;5042382;28;20040;-72
2023/10/06 02:03:48;;;;;;;23.70;6.63;;;;;;;12.53;100.00;102288.94;5049073;28;20376;-72
2023/10/06 02:06:15;;;;;;;20.92;6.32;;;;;;;12.49;100.00;102286.47;5058525;28;20032;-72
2023/10/06 02:08:43;;;;;;;18.33;6.25;;;;;;;12.52;100.00;102295.28;5054011;28;20115;-72
2023/10/06 02:11:09;;;;;;;20.55;5.28;;;;;;;12.52;100.00;102292.56;5054281;28;20088;-73
2023/10/06 02:13:35;;;;;;;18.70;5.80;;;;;;;12.51;100.00;102290.81;5055307;28;20040;-71
2023/10/06 02:16:03;;;;;;;16.05;5.60;;;;;;;12.52;100.00;102295.28;5053445;28;20029;-72
2023/10/06 02:18:37;;;;;;;21.20;5.80;;;;;;;12.53;100.00;102299.72;5051864;28;20024;-72
2023/10/06 02:21:11;;;;;;;21.20;6.38;;;;;;;12.51;100.00;102312.41;5054426;28;20525;-72
2023/10/06 02:23:37;;;;;;;20.45;6.65;;;;;;;12.50;100.00;102299.00;5044504;28;20456;-72
2023/10/06 02:26:10;;;;;;;21.52;6.43;;;;;;;12.48;100.00;102288.31;5047985;28;20349;-73
2023/10/06 02:28:40;;;;;;;21.27;6.50;;;;;;;12.45;100.00;102285.81;5048479;28;20029;-72
2023/10/06 02:31:07;;;;;;;20.63;6.68;;;;;;;12.46;100.00;102298.34;5057115;28;20024;-72
2023/10/06 02:33:39;;;;;;;20.58;6.88;;;;;;;12.47;100.00;102291.97;5054251;28;20430;-70
2023/10/06 02:36:22;;;;;;;21.20;6.70;;;;;;;12.48;100.00;102292.84;5054753;28;20036;-70
2023/10/06 02:38:48;;;;;;;20.00;6.20;;;;;;;12.46;100.00;102302.84;5051598;28;20115;-70
2023/10/06 02:41:18;;;;;;;19.70;6.13;;;;;;;12.45;100.00;102296.59;5053678;28;20125;-70
2023/10/06 02:43:49;;;;;;;17.25;5.57;;;;;;;12.42;100.00;102294.06;5058181;28;20028;-70
2023/10/06 02:46:20;;;;;;;23.55;6.28;;;;;;;12.42;100.00;102288.69;5040632;28;20030;-71
2023/10/06 02:48:49;;;;;;;19.42;6.18;;;;;;;12.38;100.00;102284.41;5038181;28;20045;-70
2023/10/06 02:51:18;;;;;;;21.65;6.53;;;;;;;12.41;100.00;102282.41;5057935;28;20047;-70
2023/10/06 02:53:49;;;;;;;19.15;6.03;;;;;;;12.36;100.00;102283.66;5047475;28;20447;-69
2023/10/06 02:56:16;;;;;;;17.40;6.05;;;;;;;12.36;100.00;102291.75;5041902;28;20071;-70
2023/10/06 02:58:42;;;;;;;19.98;5.93;;;;;;;12.34;100.00;102288.25;5051485;28;20028;-70
2023/10/06 03:01:11;;;;;;;20.23;6.05;;;;;;;12.33;100.00;102286.50;5058616;28;20020;-70
2023/10/06 03:03:36;;;;;;;18.10;5.65;;;;;;;12.31;100.00;102283.88;5062145;28;20048;-70
2023/10/06 03:06:07;;;;;;;17.52;5.28;;;;;;;12.31;100.00;102280.34;5063085;28;20067;-70
2023/10/06 03:08:35;;;;;;;19.67;6.10;;;;;;;12.28;100.00;102281.38;5039992;28;20072;-70
2023/10/06 03:11:00;;;;;;;19.05;5.70;;;;;;;12.30;100.00;102270.50;5056664;28;20364;-69
2023/10/06 03:13:33;;;;;;;16.85;5.18;;;;;;;12.29;100.00;102272.34;5061901;28;20127;-70
2023/10/06 03:15:59;;;;;;;17.30;4.95;;;;;;;12.28;100.00;102267.91;5053358;28;20032;-70
2023/10/06 03:18:26;;;;;;;21.20;5.65;;;;;;;12.28;100.00;102269.72;5057102;28;20021;-70
2023/10/06 03:21:00;;;;;;;16.15;5.68;;;;;;;12.25;100.00;102270.78;5056858;28;20021;-70
2023/10/06 03:23:36;;;;;;;16.92;5.63;;;;;;;12.27;100.00;102258.09;5051915;28;20014;-69
2023/10/06 03:26:04;;;;;;;20.58;5.80;;;;;;;12.26;100.00;102258.19;5049992;28;20542;-72
2023/10/06 03:28:38;;;;;;;16.30;5.57;;;;;;;12.25;100.00;102262.69;5062210;28;20028;-72
2023/10/06 03:33:50;;;;;;;19.77;6.00;;;;;;;12.22;100.00;102279.91;5055629;28;20074;-71
2023/10/06 03:36:16;;;;;;;16.70;5.72;;;;;;;12.20;100.00;102273.75;5060681;28;20428;-72
2023/10/06 03:38:55;;;;;;;16.50;5.43;;;;;;;12.22;100.00;102279.91;5059107;28;20025;-72
2023/10/06 03:41:32;;;;;;;18.52;4.88;;;;;;;12.24;100.00;102279.84;5046915;28;20026;-72
2023/10/06 03:44:00;;;;;;;17.05;5.60;;;;;;;12.24;100.00;102277.16;5064015;28;20021;-72
2023/10/06 03:46:27;;;;;;;17.73;5.40;;;;;;;12.21;100.00;102280.00;5063831;28;20079;-73
2023/10/06 03:48:52;;;;;;;15.65;4.78;;;;;;;12.21;100.00;102266.50;5051965;28;20422;-72
2023/10/06 03:51:19;;;;;;;19.17;5.55;;;;;;;12.22;100.00;102269.13;5046470;28;20082;-72
2023/10/06 03:53:47;;;;;;;17.80;5.25;;;;;;;12.22;100.00;102271.81;5052944;28;20123;-72
2023/10/06 03:56:16;;;;;;;17.50;5.68;;;;;;;12.22;100.00;102266.41;5047886;28;20024;-72
2023/10/06 03:58:42;;;;;;;20.40;5.47;;;;;;;12.19;100.00;102255.81;5050703;28;20762;-72
2023/10/06 04:01:09;;;;;;;18.08;5.38;;;;;;;12.17;100.00;102257.75;5051888;28;20047;-72
2023/10/06 04:03:35;;;;;;;17.15;5.43;;;;;;;12.15;100.00;102254.28;5050418;28;20040;-72
2023/10/06 04:06:03;;;;;;;16.95;5.25;;;;;;;12.17;100.00;102246.09;5054179;28;20202;-72
2023/10/06 04:08:29;;;;;;;17.50;4.95;;;;;;;12.20;100.00;102245.94;5060932;28;20043;-71
2023/10/06 04:10:57;;;;;;;15.20;4.72;;;;;;;12.17;100.00;102238.88;5048769;28;20468;-72
2023/10/06 04:13:23;;;;;;;17.77;5.17;;;;;;;12.19;100.00;102254.97;5047958;28;20036;-72
2023/10/06 04:15:49;;;;;;;18.10;5.22;;;;;;;12.16;100.00;102239.81;5038906;28;20033;-72
2023/10/06 04:18:18;;;;;;;19.85;5.55;;;;;;;12.13;100.00;102228.38;5041106;28;20029;-72
2023/10/06 04:20:45;;;;;;;19.88;5.65;;;;;;;12.13;100.00;102241.84;5043187;28;20123;-72
2023/10/06 04:23:16;;;;;;;17.98;4.95;;;;;;;12.06;100.00;102244.00;5062785;28;20031;-72
2023/10/06 04:25:42;;;;;;;16.83;5.93;;;;;;;12.09;100.00;102248.34;5050745;28;20032;-72
2023/10/06 04:28:16;;;;;;;18.98;5.50;;;;;;;12.10;100.00;102261.75;5057171;28;20040;-72
2023/10/06 04:30:43;;;;;;;18.10;5.47;;;;;;;12.07;100.00;102267.31;5054988;28;20063;-72
2023/10/06 04:33:13;;;;;;;18.63;5.53;;;;;;;12.07;100.00;102262.78;5058651;28;20024;-72
2023/10/06 04:35:47;;;;;;;17.67;5.32;;;;;;;12.02;100.00;102262.19;5036486;28;20028;-70
2023/10/06 04:38:14;;;;;;;20.10;5.75;;;;;;;12.01;100.00;102254.19;5056374;28;20021;-69
2023/10/06 04:40:43;;;;;;;15.73;4.75;;;;;;;12.04;100.00;102256.72;5042247;28;20048;-70
2023/10/06 04:43:09;;;;;;;18.40;5.15;;;;;;;12.03;100.00;102250.44;5046138;28;20030;-70
2023/10/06 04:45:38;;;;;;;16.45;4.88;;;;;;;12.03;100.00;102238.78;5059602;28;20108;-70
2023/10/06 04:48:05;;;;;;;19.65;5.32;;;;;;;12.01;100.00;102246.13;5057721;28;20040;-70
2023/10/06 04:50:31;;;;;;;19.85;5.35;;;;;;;12.04;100.00;102235.16;5058271;28;20051;-70
2023/10/06 04:52:56;;;;;;;16.83;4.85;;;;;;;12.02;100.00;102234.34;5063946;28;20028;-70
2023/10/06 04:55:22;;;;;;;16.58;5.30;;;;;;;11.98;100.00;102241.75;5049411;28;20028;-70
2023/10/06 04:57:48;;;;;;;18.05;5.53;;;;;;;11.99;100.00;102239.94;5044853;28;20424;-70
2023/10/06 05:00:15;;;;;;;15.52;4.85;;;;;;;12.00;100.00;102233.59;5048400;28;20048;-70
2023/10/06 05:02:44;;;;;;;17.80;4.85;;;;;;;12.00;100.00;102234.44;5051529;28;20039;-69
2023/10/06 05:05:19;;;;;;;19.40;5.18;;;;;;;12.00;100.00;102228.19;5055268;28;20119;-70
2023/10/06 05:07:48;;;;;;;17.02;4.80;;;;;;;11.98;100.00;102233.69;5056037;28;20295;-71
2023/10/06 05:10:18;;;;;;;18.80;5.20;;;;;;;11.96;100.00;102234.72;5056138;28;20102;-69
2023/10/06 05:12:43;;;;;;;17.55;5.13;;;;;;;11.97;100.00;102229.22;5056714;28;20062;-70
2023/10/06 05:15:14;;;;;;;16.55;5.15;;;;;;;11.96;100.00;102237.41;5056391;28;20029;-70
2023/10/06 05:17:40;;;;;;;15.77;5.10;;;;;;;11.98;100.00;102232.81;5058810;28;20029;-70
2023/10/06 05:20:13;;;;;;;20.60;4.93;;;;;;;11.92;100.00;102231.31;5054922;28;20491;-70
2023/10/06 05:22:40;;;;;;;16.85;5.05;;;;;;;11.96;100.00;102226.63;5054321;28;20031;-70
2023/10/06 05:25:13;;;;;;;15.32;5.07;;;;;;;11.94;100.00;102229.41;5052653;28;20460;-71
2023/10/06 05:27:38;;;;;;;14.40;4.50;;;;;;;11.94;100.00;102228.56;5059798;28;20043;-70
2023/10/06 05:30:06;;;;;;;17.83;4.93;;;;;;;11.95;100.00;102232.97;5055544;28;20442;-70
2023/10/06 05:32:32;;;;;;;16.10;4.72;;;;;;;11.92;100.00;102235.81;5049461;28;20098;-69
2023/10/06 05:34:57;;;;;;;16.20;4.90;;;;;;;11.93;100.00;102235.75;5047284;28;20504;-69
2023/10/06 05:37:23;;;;;;;15.75;5.05;;;;;;;11.97;100.00;102239.16;5061072;28;20082;-70
2023/10/06 05:39:49;;;;;;;21.75;5.20;;;;;;;11.96;100.00;102234.72;5054585;28;20038;-70
2023/10/06 05:42:14;;;;;;;20.33;4.80;;;;;;;11.97;100.00;102231.06;5049713;28;20029;-69
2023/10/06 05:44:40;;;;;;;17.38;5.30;;;;;;;11.94;100.00;102228.56;5041112;28;20111;-72
2023/10/06 05:47:08;;;;;;;15.93;4.75;;;;;;;11.98;100.00;102230.13;5046955;28;20128;-72
2023/10/06 05:49:35;;;;;;;15.68;5.20;;;;;;;11.96;100.00;102234.72;5047728;28;20401;-73
2023/10/06 05:52:00;;;;;;;18.27;4.53;;;;;;;12.00;100.00;102233.59;5044447;28;20024;-72
2023/10/06 05:54:29;;;;;;;16.08;4.93;;;;;;;11.97;100.00;102233.75;5042781;28;20029;-72
2023/10/06 05:56:55;;;;;;;15.57;4.72;;;;;;;11.98;100.00;102240.91;5043603;28;20071;-72
2023/10/06 05:59:21;;;;;;;18.58;5.80;;;;;;;11.96;100.00;102240.09;5037856;28;20060;-72
2023/10/06 06:01:55;;;;;;;15.07;5.07;;;;;;;11.99;100.00;102238.13;5042311;28;20108;-72
2023/10/06 06:04:27;;;;;;;15.52;4.95;;;;;;;11.99;100.00;102238.13;5040280;28;20032;-72
2023/10/06 06:06:56;;;;;;;15.77;4.80;;;;;;;12.00;100.00;102236.28;5033816;28;20032;-72
2023/10/06 06:09:22;;;;;;;13.55;4.40;;;;;;;12.00;100.00;102234.44;5039664;28;20083;-72
2023/10/06 06:11:47;;;;;;;17.08;4.68;;;;;;;12.02;100.00;102235.25;5039166;28;20025;-72
2023/10/06 06:14:13;;;;;;;12.40;4.10;;;;;;;12.02;100.00;102239.75;5035044;28;20481;-72
2023/10/06 06:16:44;;;;;;;14.98;4.68;;;;;;;12.02;100.00;102239.75;5036101;28;20037;-72
2023/10/06 06:19:11;;;;;;;13.93;4.25;;;;;;;12.04;100.00;102238.72;5035151;28;20033;-72
2023/10/06 06:21:38;;;;;;;21.13;5.07;;;;;;;12.06;100.00;102241.31;5039175;28;20507;-72
2023/10/06 06:24:06;;;;;;;13.13;4.35;;;;;;;12.05;100.00;102243.16;5043404;28;20027;-72
2023/10/06 06:26:31;;;;;;;20.67;5.60;;;;;;;12.07;100.00;102234.97;5038025;28;20125;-72
2023/10/06 06:29:02;;;;;;;15.30;4.65;;;;;;;12.05;100.00;102243.16;5044323;28;20078;-72
2023/10/06 06:31:28;;;;;;;17.92;4.72;;;;;;;12.09;100.00;102251.91;5041221;28;20051;-72
2023/10/06 06:33:56;;;;;;;14.02;4.57;;;;;;;12.09;100.00;102249.22;5059007;28;20112;-72
2023/10/06 06:36:21;;;;;;;14.23;4.88;;;;;;;12.14;100.00;102252.53;5053168;28;20035;-72
2023/10/06 06:38:48;;;;;;;13.82;4.50;;;;;;;12.15;100.00;102246.19;5048325;28;20418;-71
2023/10/06 06:41:13;;;;;;;19.80;5.20;;;;;;;12.12;100.00;102254.44;5051619;28;20020;-72
2023/10/06 06:43:44;;;;;;;16.42;4.95;;;;;;;12.15;100.00;102256.09;5047704;28;20488;-72
2023/10/06 06:46:10;;;;;;;14.13;3.97;;;;;;;12.21;100.00;102247.63;5053920;28;20029;-72
2023/10/06 06:48:35;;;;;;;14.93;4.85;;;;;;;12.17;100.00;102255.03;5052273;28;20349;-71
2023/10/06 06:51:01;;;;;;;17.80;5.40;;;;;;;12.20;100.00;102254.88;5053895;28;20028;-72
2023/10/06 06:53:26;;;;;;;13.43;4.50;;;;;;;12.21;100.00;102247.63;5051422;28;20380;-72
2023/10/06 06:55:51;;;;;;;19.63;5.45;;;;;;;12.21;100.00;102251.22;5053355;28;20035;-72
2023/10/06 06:58:16;;;;;;;15.80;4.60;;;;;;;12.24;100.00;102250.19;5051004;28;20057;-72
2023/10/06 07:00:42;;;;;;;16.25;4.65;;;;;;;12.26;100.00;102242.00;5047368;28;20035;-72
2023/10/06 07:03:08;;;;;;;17.15;5.03;;;;;;;12.27;100.00;102249.13;5050482;28;20147;-73
2023/10/06 07:05:35;;;;;;;15.27;5.03;;;;;;;12.24;100.00;102248.34;5049726;28;20152;-72
2023/10/06 07:08:03;;;;;;;15.02;4.80;;;;;;;12.29;100.00;102249.91;5047558;28;20306;-72
2023/10/06 07:10:29;;;;;;;15.95;4.57;;;;;;;12.31;100.00;102242.59;5047676;28;20026;-72
2023/10/06 07:12:58;;;;;;;17.27;4.47;;;;;;;12.32;100.00;102245.19;5048237;28;20032;-72
2023/10/06 07:15:24;;;;;;;15.48;4.78;;;;;;;12.33;100.00;102240.66;5043435;28;20025;-72
2023/10/06 07:17:51;;;;;;;15.90;4.70;;;;;;;12.35;100.00;102238.75;5046096;28;20611;-72
2023/10/06 07:20:28;;;;;;;18.70;5.03;;;;;;;12.36;100.00;102235.13;5040487;28;20144;-72
2023/10/06 07:22:55;;;;;;;17.63;5.38;;;;;;;12.40;100.00;102244.75;5047850;28;20025;-72
2023/10/06 07:25:24;;;;;;;19.15;5.10;;;;;;;12.43;100.00;102249.09;5055739;28;20508;-72
2023/10/06 07:27:52;;;;;;;16.33;5.20;;;;;;;12.45;100.00;102247.19;5055939;28;20064;-72
2023/10/06 07:30:22;;;;;;;16.90;5.10;;;;;;;12.47;100.00;102248.81;5050631;28;20039;-72
2023/10/06 07:32:47;;;;;;;15.50;5.22;;;;;;;12.52;100.00;102252.13;5051386;28;20072;-72
2023/10/06 07:35:13;;;;;;;19.38;5.78;;;;;;;12.58;100.00;102242.81;5049053;28;20108;-73
2023/10/06 07:37:42;;;;;;;17.75;4.88;;;;;;;12.62;100.00;102254.25;5049132;28;20180;-72
2023/10/06 07:40:13;;;;;;;17.23;5.10;;;;;;;12.64;100.00;102247.81;5044167;28;20556;-72
2023/10/06 07:42:42;;;;;;;20.92;5.63;;;;;;;12.68;100.00;102248.50;5046631;28;20115;-72
2023/10/06 07:45:08;;;;;;;18.02;5.07;;;;;;;12.72;100.00;102258.16;5042147;28;20029;-72
2023/10/06 07:47:36;;;;;;;14.60;4.65;;;;;;;12.76;100.00;102265.09;5041288;28;20507;-72
2023/10/06 07:50:02;;;;;;;19.98;5.22;;;;;;;12.79;100.00;102274.84;5043286;28;20029;-72
2023/10/06 07:52:27;;;;;;;18.45;5.22;;;;;;;12.85;100.00;102277.16;5041243;28;20114;-73
2023/10/06 07:54:53;;;;;;;19.23;5.60;;;;;;;12.90;100.00;102283.19;5061382;28;20100;-72
2023/10/06 07:57:18;;;;;;;17.55;5.05;;;;;;;12.95;100.00;102286.44;5058181;28;20078;-72
2023/10/06 07:59:43;;;;;;;17.67;5.40;;;;;;;12.98;100.00;102288.97;5044449;28;20036;-72
2023/10/06 08:02:10;;;;;;;15.73;4.85;;;;;;;13.03;100.00;102289.56;5068997;28;20032;-72
2023/10/06 08:04:35;;;;;;;19.70;5.25;;;;;;;13.08;100.00;102287.44;5059284;28;20039;-72
2023/10/06 08:07:01;;;;;;;19.48;4.85;;;;;;;13.14;100.00;102275.41;5048760;28;20021;-72
2023/10/06 08:09:26;;;;;;;16.60;5.20;;;;;;;13.18;100.00;102274.25;5060261;28;20044;-73
2023/10/06 08:11:54;;;;;;;16.70;4.50;;;;;;;13.24;100.00;102279.28;5060185;28;20522;-72
2023/10/06 08:14:20;;;;;;;16.02;5.47;;;;;;;13.30;100.00;102269.94;5035363;28;20039;-71
2023/10/06 08:16:49;;;;;;;16.80;5.20;;;;;;;13.35;100.00;102267.81;5042931;28;20025;-72
2023/10/06 08:19:15;;;;;;;20.95;5.40;;;;;;;13.41;100.00;102267.47;5046882;28;20031;-72
2023/10/06 08:21:41;;;;;;;20.38;6.25;;;;;;;13.48;100.00;102273.34;5062681;28;20155;-72
2023/10/06 08:24:07;;;;;;;19.35;5.80;;;;;;;13.57;100.00;102278.19;5057308;28;20102;-72
2023/10/06 08:26:33;;;;;;;19.67;5.63;;;;;;;13.64;100.00;102278.63;5054893;28;20040;-72
2023/10/06 08:28:59;;;;;;;18.75;6.38;;;;;;;13.72;100.00;102276.31;5051995;28;20029;-72
2023/10/06 08:31:26;;;;;;;18.05;5.72;;;;;;;13.80;100.00;102283.94;5047611;28;20032;-72
2023/10/06 08:33:51;;;;;;;20.33;5.80;;;;;;;13.86;100.00;102282.69;5050609;28;20077;-71
2023/10/06 08:36:17;;;;;;;18.23;5.78;;;;;;;13.91;100.00;102280.53;5053845;28;20395;-72
2023/10/06 08:38:46;;;;;;;20.75;5.68;;;;;;;13.96;100.00;102273.84;5060672;28;20051;-72
2023/10/06 08:41:11;;;;;;;19.92;5.70;;;;;;;14.02;100.00;102278.00;5048550;28;20020;-72
2023/10/06 08:43:38;;;;;;;18.05;5.22;;;;;;;14.08;100.00;102274.88;5064068;28;20486;-72
2023/10/06 08:46:05;;;;;;;18.98;6.10;;;;;;;14.14;100.00;102288.03;5051742;28;20037;-72
2023/10/06 08:48:32;;;;;;;16.63;4.90;;;;;;;14.24;100.00;102280.16;5059177;28;20058;-71
2023/10/06 08:51:04;;;;;;;15.27;5.13;;;;;;;14.30;100.00;102277.03;5060775;28;20130;-71
2023/10/06 08:53:31;;;;;;;19.35;5.90;;;;;;;14.34;100.00;102272.31;5053863;28;20033;-72
2023/10/06 08:55:57;;;;;;;21.60;6.20;;;;;;;14.42;100.00;102267.28;5064805;28;20048;-72
2023/10/06 08:58:26;;;;;;;16.73;5.10;;;;;;;14.50;100.00;102280.28;5065239;28;20049;-72
2023/10/06 09:00:52;;;;;;;17.40;4.82;;;;;;;14.57;100.00;102268.06;5056452;28;20025;-71
2023/10/06 09:03:20;;;;;;;20.60;6.10;;;;;;;14.62;100.00;102281.31;5047526;28;20443;-72
2023/10/06 09:05:45;;;;;;;18.80;5.43;;;;;;;14.64;100.00;102280.25;5053858;28;20017;-72
2023/10/06 09:08:15;;;;;;;17.88;5.40;;;;;;;14.68;100.00;102286.31;5056231;28;20413;-72
2023/10/06 09:10:41;;;;;;;;;;;;;;;14.73;100.00;102294.09;5036957;28;20104;-72
2023/10/06 09:13:11;;;;;;;18.65;5.93;;;;;;;14.75;100.00;102293.03;5044215;28;19920;-72
2023/10/06 09:15:43;;;;;;;20.30;5.88;;;;;;;14.79;100.00;102285.59;5058258;28;20032;-71
2023/10/06 09:18:19;;;;;;;18.55;5.68;;;;;;;14.84;100.00;102280.72;5056879;28;20048;-69
2023/10/06 09:20:47;;;;;;;19.05;6.22;;;;;;;14.87;100.00;102280.50;5045529;28;20031;-70
2023/10/06 09:23:29;;;;;;;18.83;5.88;;;;;;;14.91;100.00;102283.88;5053868;28;20017;-69
2023/10/06 09:25:55;;;;;;;17.60;5.70;;;;;;;14.93;100.00;102269.25;5046610;28;20033;-69
2023/10/06 09:28:21;;;;;;;17.85;6.03;;;;;;;14.98;100.00;102264.41;5055636;28;20054;-69
2023/10/06 09:30:56;;;;;;;21.38;6.10;;;;;;;15.05;100.00;102264.81;5052646;28;20111;-70
2023/10/06 09:33:24;;;;;;;20.02;5.63;;;;;;;15.09;100.00;102255.50;5058437;28;20074;-69
2023/10/06 09:36:01;;;;;;;15.77;4.97;;;;;;;15.17;100.00;102255.84;5054401;28;20104;-69
2023/10/06 09:38:26;;;;;;;15.18;4.85;;;;;;;15.23;100.00;102261.78;5058044;28;20045;-69
2023/10/06 09:40:52;;;;;;;17.05;5.47;;;;;;;15.27;100.00;102256.06;5058780;28;20033;-70
2023/10/06 09:43:19;;;;;;;24.75;5.80;;;;;;;15.31;100.00;102262.13;5059621;28;20462;-68
2023/10/06 09:45:47;;;;;;;18.70;5.07;;;;;;;15.34;100.00;102256.50;5053853;28;20029;-69
2023/10/06 09:48:15;;;;;;;16.20;4.95;;;;;;;15.36;100.00;102260.81;5042433;28;20118;-68
2023/10/06 09:50:50;;;;;;;17.67;4.88;;;;;;;15.40;100.00;102266.03;5043875;28;20091;-69
2023/10/06 09:53:19;;;;;;;20.95;4.85;;;;;;;15.43;100.00;102254.97;5056558;28;20025;-69
2023/10/06 09:55:46;;;;;;;16.20;4.80;;;;;;;15.46;100.00;102252.91;5063806;28;20028;-69
2023/10/06 09:58:13;;;;;;;16.38;4.63;;;;;;;15.50;100.00;102250.84;5041794;28;20025;-69
2023/10/06 10:00:39;;;;;;;19.33;5.28;;;;;;;15.51;100.00;102249.88;5058914;28;20103;-69
2023/10/06 10:03:09;;;;;;;14.20;4.38;;;;;;;15.54;100.00;102247.78;5053281;28;20336;-70
2023/10/06 10:05:38;;;;;;;14.80;4.40;;;;;;;15.57;100.00;102259.41;5059229;28;20027;-69
2023/10/06 10:08:04;;;;;;;15.98;4.53;;;;;;;15.60;100.00;102254.63;5049314;28;20079;-69
2023/10/06 10:10:31;;;;;;;14.30;4.15;;;;;;;15.61;100.00;102250.94;5050747;28;20027;-70
2023/10/06 10:13:50;;;;;;;17.33;4.22;;;;;;;15.63;100.00;102240.00;5062431;28;20052;-69
2023/10/06 10:16:30;;;;;;;14.77;4.60;;;;;;;15.64;100.00;102248.00;5036887;28;20033;-70
2023/10/06 10:19:03;;;;;;;17.48;4.38;;;;;;;15.66;100.00;102251.47;5027602;28;20498;-69
2023/10/06 10:21:29;;;;;;;16.70;4.40;;;;;;;15.66;100.00;102251.47;5028434;28;20032;-69
2023/10/06 10:23:56;;;;;;;18.45;4.97;;;;;;;15.69;100.00;102244.97;5023570;28;20373;-72
2023/10/06 10:26:26;;;;;;;16.23;4.13;;;;;;;15.71;100.00;102241.16;5041934;28;20025;-72
2023/10/06 10:29:09;;;;;;;14.23;4.43;;;;;;;15.75;100.00;102243.66;5038023;28;20026;-71
2023/10/06 10:31:38;;;;;;;21.83;6.32;;;;;;;15.76;100.00;102245.38;5029575;28;20041;-72
2023/10/06 10:34:03;;;;;;;16.88;5.55;;;;;;;15.77;100.00;102247.97;5028613;28;20497;-73
2023/10/06 10:36:29;;;;;;;18.50;5.85;;;;;;;15.77;100.00;102237.13;5039012;28;20052;-71
2023/10/06 10:39:17;;;;;;;14.02;5.00;;;;;;;15.79;100.00;102239.78;5040140;28;20056;-72
2023/10/06 10:41:45;;;;;;;18.38;5.15;;;;;;;15.79;100.00;102239.78;5039921;28;20032;-72
2023/10/06 10:44:11;;;;;;;17.42;4.97;;;;;;;15.81;100.00;102233.25;5027394;28;20552;-70
2023/10/06 10:46:48;;;;;;;17.80;5.20;;;;;;;15.86;100.00;102227.50;5022965;28;20560;-71
2023/10/06 10:49:18;;;;;;;22.08;5.68;;;;;;;15.89;100.00;102230.84;5029553;28;20963;-71
2023/10/06 10:52:00;;;;;;;20.05;5.78;;;;;;;15.92;99.42;102235.16;5054122;28;20032;-71
2023/10/06 10:54:33;;;;;;;20.60;4.85;;;;;;;15.95;100.00;102224.09;5048503;28;20520;-71
2023/10/06 10:57:14;;;;;;;20.92;5.55;;;;;;;15.97;99.49;102222.13;5060696;28;20024;-71
2023/10/06 11:00:23;;;;;;;17.05;5.45;;;;;;;16.03;99.46;102226.22;5053497;28;20035;-70
2023/10/06 11:02:46;;;;;;;14.23;4.30;;;;;;;16.07;99.83;102225.88;5051297;28;20029;-70
2023/10/06 11:05:12;;;;;;;16.88;5.53;;;;;;;16.11;99.17;102234.66;5058145;28;20109;-70
2023/10/06 11:07:39;;;;;;;14.98;4.53;;;;;;;16.15;99.49;102219.91;5062975;28;20052;-71
2023/10/06 11:10:05;;;;;;;17.92;5.22;;;;;;;16.18;98.25;102233.22;5060357;28;20025;-71
2023/10/06 11:12:31;;;;;;;20.75;5.53;;;;;;;16.20;97.34;102239.41;5062972;28;20056;-70
2023/10/06 11:15:16;;;;;;;21.42;5.70;;;;;;;16.22;98.15;102231.13;5057500;28;20473;-71
2023/10/06 11:17:42;;;;;;;16.27;5.07;;;;;;;16.22;97.52;102233.84;5058164;28;20085;-71
2023/10/06 11:20:33;;;;;;;18.45;5.43;;;;;;;16.22;96.98;102225.72;5060535;28;20107;-70
2023/10/06 11:23:03;;;;;;;17.83;5.53;;;;;;;16.24;98.19;102221.06;5048882;28;20021;-71